Latest Weather Observations for Cape Nelson

IDV60801

Issued at 4:32 pm EDT Thursday 8 December 2016 (issued every 30 minutes, with the page automatically refreshed every 10 minutes)

About weather observations | Map of weather stations | Latest weather observations for VIC | Other Formats
Station Details ID: 090184 Name: CAPE NELSON LIGHTHOUSE Lat: -38.43 Lon: 141.54 Height: 45.4 m
Data from the previous 72 hours. | See also: Recent months at Cape Nelson
Date/Time
EDT
Temp
°C
App
Temp
°C
Dew
Point
°C
Rel
Hum
%
Delta-T
°C
Wind Press
QNH
hPa
Press
MSL
hPa
Rain since
9am
mm
Dir  Spd
km/h
Gust
km/h
Spd
kts
Gust
kts
08/04:30pm 13.2 7.2 10.9 86 1.2 NW 33 56 18 30 1001.8 1001.8 0.4
08/04:07pm 13.8 7.4 10.8 82 1.6 WNW 35 61 19 33 1000.9 1000.9 0.4
08/04:00pm 13.9 7.3 11.2 84 1.4 WNW 37 57 20 31 1001.0 1001.0 0.4
08/03:58pm 13.8 6.8 11.1 84 1.4 WNW 39 59 21 32 1001.1 1001.1 0.4
08/03:56pm 14.0 7.1 11.5 85 1.3 WNW 39 63 21 34 1000.9 1000.9 0.4
08/03:30pm 13.9 4.3 10.7 81 1.7 W 52 72 28 39 1000.7 1000.7 0.4
08/03:09pm 13.7 3.7 10.7 82 1.6 W 54 72 29 39 1000.7 1000.7 0.4
08/03:00pm 13.1 2.4 10.3 83 1.5 W 57 72 31 39 1000.6 1000.6 0.4
08/02:30pm 14.2 5.0 10.8 80 1.8 W 50 80 27 43 1000.0 999.9 0.4
08/02:00pm 14.2 6.9 11.7 85 1.4 W 41 65 22 35 999.4 999.3 0.2
08/01:34pm 15.6 6.3 10.4 71 2.7 W 50 83 27 45 999.0 998.9 0.0
08/01:33pm 15.6 5.9 10.4 71 2.7 W 52 83 28 45 999.0 998.9 0.0
08/01:30pm 15.6 5.0 10.6 72 2.7 W 57 83 31 45 998.8 998.7 0.0
08/01:00pm 15.8 4.6 9.7 67 3.2 W 59 82 32 44 998.6 998.5 0.0
08/12:30pm 15.1 4.9 9.9 71 2.7 W 54 83 29 45 998.3 998.2 0.0
08/12:00pm 15.7 4.9 10.0 69 3.0 W 57 78 31 42 998.0 997.9 0.0
08/11:30am 15.6 5.4 10.2 70 2.8 WNW 54 72 29 39 997.7 997.6 0.0
08/11:00am 15.5 4.7 10.1 70 2.9 WNW 57 78 31 42 997.2 997.1 0.0
08/10:30am 15.7 5.5 10.0 69 3.0 WNW 54 72 29 39 997.0 996.9 0.0
08/10:00am 15.8 4.2 9.7 67 3.2 WNW 61 80 33 43 996.3 996.2 0.0
08/09:30am 15.1 3.6 10.3 73 2.5 WNW 61 87 33 47 996.0 995.9 0.0
08/09:02am 14.3 4.2 10.3 77 2.1 WNW 54 72 29 39 995.9 995.8 0.0
08/09:00am 14.5 4.4 10.3 76 2.2 WNW 54 69 29 37 996.0 995.9 5.4
08/08:30am 15.1 4.3 9.2 68 3.0 WNW 56 76 30 41 995.7 995.6 5.4
08/08:00am 14.4 4.5 9.6 73 2.5 WNW 52 72 28 39 995.6 995.5 5.4
08/07:30am 14.2 3.5 9.4 73 2.5 WNW 56 85 30 46 995.3 995.2 5.4
08/07:00am 14.0 3.5 10.2 78 2.0 WNW 56 76 30 41 994.5 994.4 5.4
08/06:30am 14.6 5.4 12.3 86 1.3 WNW 52 70 28 38 993.9 993.8 5.4
08/06:00am 14.8 5.8 12.7 87 1.2 WNW 52 72 28 39 993.4 993.3 5.2
08/05:30am 16.6 9.0 14.6 88 1.1 WNW 48 78 26 42 992.6 992.5 4.6
08/05:22am 17.6 10.6 15.2 86 1.4 NW 46 78 25 42 992.3 992.2 4.2
08/05:00am 18.4 13.1 16.4 88 1.2 NNW 39 65 21 35 991.8 991.7 3.8
08/04:30am 17.4 12.6 15.7 90 1.0 N 35 59 19 32 991.6 991.5 3.8
08/04:00am 17.4 11.8 15.4 88 1.2 N 39 57 21 31 993.0 992.9 3.8
08/03:30am 18.0 13.5 14.9 82 1.8 N 32 54 17 29 992.8 992.7 1.4
08/03:00am 18.5 13.4 14.8 79 2.2 N 35 59 19 32 993.4 993.3 1.0
08/02:31am 18.6 14.7 14.5 77 2.4 N 28 48 15 26 994.6 994.5 0.8
08/02:30am 18.7 15.2 14.6 77 2.4 N 26 48 14 26 994.7 994.6 0.8
08/02:00am 18.9 14.0 14.2 74 2.7 N 33 56 18 30 993.8 993.7 0.2
08/01:30am 20.1 15.4 13.3 65 3.9 N 30 52 16 28 994.7 994.6 0.0
08/01:29am 20.1 15.4 13.3 65 3.9 N 30 52 16 28 994.7 994.6 0.0
08/01:00am 19.6 16.0 13.1 66 3.7 NNE 24 43 13 23 995.7 995.6 0.0
08/12:30am 17.3 14.6 13.6 79 2.1 NNE 20 28 11 15 997.0 996.9 0.0
08/12:00am 17.8 16.6 13.9 78 2.2 NNE 13 19 7 10 998.8 998.7 0.0
 
Date/Time
EDT
Temp
°C
App
Temp
°C
Dew
Point
°C
Rel
Hum
%
Delta-T
°C
Wind Press
QNH
hPa
Press
MSL
hPa
Rain since
9am
mm
Dir  Spd
km/h
Gust
km/h
Spd
kts
Gust
kts
07/11:30pm 17.1 15.3 13.2 78 2.2 NE 15 20 8 11 999.2 999.1 0.0
07/11:00pm 16.9 15.1 13.2 79 2.1 NNE 15 20 8 11 1000.2 1000.2 0.0
07/10:30pm 16.5 14.7 13.4 82 1.7 NNE 15 22 8 12 1001.1 1001.1 0.0
07/10:00pm 16.2 13.9 13.1 82 1.7 NE 17 20 9 11 1002.1 1002.1 0.0
07/09:30pm 16.1 12.9 13.0 82 1.7 NE 22 28 12 15 1002.7 1002.7 0.0
07/09:00pm 15.8 11.8 12.9 83 1.6 ENE 26 32 14 17 1003.6 1003.6 0.0
07/08:30pm 16.4 13.0 12.6 78 2.1 E 22 30 12 16 1004.0 1004.0 0.0
07/08:00pm 16.4 12.5 12.2 76 2.3 E 24 32 13 17 1004.4 1004.3 0.0
07/07:30pm 17.2 13.0 12.5 74 2.6 E 26 33 14 18 1005.1 1005.0 0.0
07/07:00pm 18.0 14.1 12.0 68 3.3 E 24 30 13 16 1005.6 1005.5 0.0
07/06:30pm 18.3 14.5 12.3 68 3.3 E 24 28 13 15 1006.1 1006.0 0.0
07/06:00pm 18.5 15.3 11.8 65 3.7 E 20 26 11 14 1006.7 1006.6 0.0
07/05:30pm 19.2 17.3 11.7 62 4.1 ESE 13 17 7 9 1007.6 1007.5 0.0
07/05:00pm 19.6 17.8 12.1 62 4.2 ESE 13 17 7 9 1008.0 1007.9 0.0
07/04:30pm 19.2 16.8 11.5 61 4.2 SE 15 20 8 11 1009.0 1008.9 0.0
07/04:00pm 19.3 17.1 12.1 63 4.0 SSE 15 19 8 10 1009.5 1009.4 0.0
07/03:30pm 19.4 17.4 12.7 65 3.8 SSE 15 20 8 11 1010.2 1010.1 0.0
07/03:00pm 18.8 16.2 12.1 65 3.7 S 17 19 9 10 1010.9 1010.8 0.0
07/02:30pm 19.3 17.6 12.3 64 3.9 S 13 19 7 10 1011.2 1011.1 0.0
07/02:00pm 19.0 16.8 12.0 64 3.9 SSW 15 19 8 10 1011.7 1011.6 0.0
07/01:30pm 19.5 17.8 12.3 63 4.0 SSW 13 17 7 9 1012.4 1012.3 0.0
07/01:00pm 19.3 17.4 11.8 62 4.2 S 13 15 7 8 1012.9 1012.8 0.0
07/12:30pm 19.2 17.7 12.0 63 4.0 SSW 11 15 6 8 1013.3 1013.2 0.0
07/12:00pm 18.6 17.0 11.4 63 3.9 S 11 13 6 7 1013.8 1013.7 0.0
07/11:30am 18.5 17.2 11.3 63 3.9 SSW 9 11 5 6 1013.9 1013.8 0.0
07/11:00am 17.7 16.2 10.6 63 3.8 SSW 9 13 5 7 1014.0 1013.9 0.0
07/10:30am 17.1 15.7 10.9 67 3.3 SW 9 13 5 7 1014.2 1014.1 0.0
07/10:00am 16.9 14.9 11.4 70 3.0 W 13 17 7 9 1014.3 1014.2 0.0
07/09:30am 16.7 14.9 10.8 68 3.2 WNW 11 17 6 9 1014.4 1014.3 0.0
07/09:00am 16.8 14.6 10.9 68 3.2 NW 13 17 7 9 1014.4 1014.3 0.0
07/08:30am 15.8 14.0 11.0 73 2.6 NW 11 15 6 8 1014.6 1014.5 0.0
07/08:00am 14.7 13.1 11.5 81 1.7 NNW 11 15 6 8 1014.4 1014.3 0.0
07/07:30am 13.2 11.1 11.1 87 1.1 NW 13 19 7 10 1014.5 1014.4 0.0
07/07:00am 12.1 9.8 10.5 90 0.8 NW 13 17 7 9 1014.4 1014.3 0.0
07/06:30am 10.3 7.5 8.7 90 0.8 NNW 13 15 7 8 1014.4 1014.3 0.0
07/06:00am 10.3 7.9 8.7 90 0.8 NNW 11 17 6 9 1014.3 1014.2 0.0
07/05:30am 10.7 8.0 9.0 89 0.8 NW 13 17 7 9 1014.3 1014.2 0.0
07/05:00am 11.0 8.4 9.3 89 0.9 NNW 13 15 7 8 1014.1 1014.0 0.0
07/04:30am 11.0 8.3 9.1 88 0.9 NW 13 15 7 8 1013.9 1013.8 0.0
07/04:00am 11.2 8.5 9.1 87 1.0 NNW 13 15 7 8 1013.8 1013.7 0.0
07/03:30am 11.5 9.2 9.1 85 1.2 NNW 11 13 6 7 1013.9 1013.8 0.0
07/03:00am 12.2 10.0 9.4 83 1.4 NNW 11 13 6 7 1014.3 1014.2 0.0
07/02:30am 13.4 10.9 9.8 79 1.9 WNW 13 19 7 10 1014.5 1014.4 0.0
07/02:00am 14.0 10.9 10.4 79 1.9 WNW 17 22 9 12 1014.8 1014.7 0.0
07/01:30am 14.1 11.1 10.7 80 1.8 WNW 17 24 9 13 1015.0 1014.9 0.0
07/01:00am 13.9 10.8 10.3 79 1.9 WNW 17 20 9 11 1015.2 1015.1 0.0
07/12:30am 13.8 11.1 10.2 79 1.9 WNW 15 19 8 10 1015.3 1015.2 0.0
07/12:00am 14.0 10.9 10.2 78 2.0 WNW 17 20 9 11 1015.6 1015.5 0.0
 
Date/Time
EDT
Temp
°C
App
Temp
°C
Dew
Point
°C
Rel
Hum
%
Delta-T
°C
Wind Press
QNH
hPa
Press
MSL
hPa
Rain since
9am
mm
Dir  Spd
km/h
Gust
km/h
Spd
kts
Gust
kts
06/11:30pm 13.4 10.7 9.1 75 2.2 WNW 13 17 7 9 1015.6 1015.5 0.0
06/11:00pm 13.9 10.9 9.1 73 2.4 WNW 15 19 8 10 1015.9 1015.8 0.0
06/10:30pm 14.3 11.7 9.5 73 2.5 W 13 19 7 10 1015.8 1015.7 0.0
06/10:00pm 14.4 11.8 9.4 72 2.6 W 13 20 7 11 1015.9 1015.8 0.0
06/09:30pm 14.4 11.4 9.2 71 2.7 W 15 20 8 11 1015.8 1015.7 0.0
06/09:00pm 14.4 12.1 9.0 70 2.7 W 11 17 6 9 1015.8 1015.7 0.0
06/08:30pm 14.7 11.7 9.1 69 2.9 W 15 22 8 12 1015.8 1015.7 0.0
06/08:00pm 15.1 11.2 8.8 66 3.2 W 19 24 10 13 1015.7 1015.6 0.0
06/07:30pm 15.9 12.1 8.9 63 3.6 WNW 19 24 10 13 1015.3 1015.2 0.0
06/07:00pm 16.2 12.9 9.4 64 3.5 W 17 24 9 13 1015.1 1015.0 0.0
06/06:30pm 16.5 13.1 9.2 62 3.8 W 17 24 9 13 1014.9 1014.8 0.0
06/06:00pm 16.8 13.3 8.8 59 4.1 W 17 24 9 13 1015.1 1015.0 0.0
06/05:30pm 15.9 11.4 8.6 62 3.7 W 22 30 12 16 1015.3 1015.2 0.0
06/05:00pm 16.1 11.6 8.6 61 3.8 W 22 33 12 18 1015.3 1015.2 0.0
06/04:30pm 16.2 12.0 8.2 59 4.1 W 20 30 11 16 1015.3 1015.2 0.0
06/04:00pm 15.9 11.6 7.9 59 4.0 W 20 28 11 15 1015.1 1015.0 0.0
06/03:30pm 16.1 12.0 7.8 58 4.2 W 19 30 10 16 1015.0 1014.9 0.0
06/03:00pm 15.7 10.5 7.2 57 4.2 W 24 30 13 16 1015.3 1015.2 0.0
06/02:30pm 15.3 10.2 7.6 60 3.8 W 24 30 13 16 1015.3 1015.2 0.0
06/02:00pm 15.3 10.4 6.8 57 4.2 W 22 28 12 15 1015.5 1015.4 0.0
06/01:30pm 15.7 10.6 7.5 58 4.1 W 24 30 13 16 1015.7 1015.6 0.0
06/01:00pm 15.7 10.9 7.2 57 4.2 W 22 32 12 17 1015.7 1015.6 0.0
06/12:30pm 16.7 12.8 7.1 53 4.8 W 17 26 9 14 1015.8 1015.7 0.0
06/12:00pm 16.6 12.2 6.4 51 5.0 W 19 28 10 15 1015.8 1015.7 0.0
06/11:30am 16.1 12.1 6.5 53 4.7 W 17 22 9 12 1015.8 1015.7 0.0
06/11:00am 15.4 11.8 6.7 56 4.3 W 15 20 8 11 1015.6 1015.5 0.0
06/10:30am 15.2 11.9 6.2 55 4.4 W 13 22 7 12 1015.5 1015.4 0.0
06/10:00am 15.0 11.2 5.8 54 4.4 W 15 19 8 10 1015.7 1015.6 0.0
06/09:30am 15.8 13.6 6.0 52 4.7 NW 7 19 4 10 1015.3 1015.2 0.0
06/09:00am 14.7 11.4 4.7 51 4.7 WNW 11 19 6 10 1015.2 1015.1 0.2
06/08:30am 15.3 12.6 5.5 52 4.7 NNW 9 17 5 9 1014.7 1014.6 0.2
06/08:00am 14.2 11.2 6.1 58 3.9 NNE 11 17 6 9 1014.4 1014.3 0.2
06/07:30am 13.6 10.5 5.7 59 3.7 NW 11 19 6 10 1014.0 1013.9 0.2
06/07:00am 13.2 9.8 6.1 62 3.4 WNW 13 19 7 10 1014.1 1014.0 0.2
06/06:30am 13.2 9.9 6.5 64 3.2 NNE 13 24 7 13 1013.7 1013.6 0.2
06/06:00am 13.0 9.9 7.2 68 2.8 SE 13 20 7 11 1013.3 1013.2 0.2
06/05:30am 13.0 10.2 7.0 67 2.9 NW 11 19 6 10 1013.4 1013.3 0.2
06/05:00am 12.7 10.1 6.3 65 3.0 N 9 20 5 11 1013.3 1013.2 0.2
06/04:30am 12.8 9.2 6.8 67 2.9 WNW 15 26 8 14 1013.6 1013.5 0.2
06/04:00am 10.3 7.7 7.9 85 1.2 WNW 11 20 6 11 1013.4 1013.3 0.2
06/03:30am 8.5 6.3 6.0 84 1.1 NW 7 9 4 5 1013.2 1013.1 0.2
06/03:00am 7.6 5.1 4.9 83 1.2 NW 7 9 4 5 1013.1 1013.0 0.2
06/02:30am 7.5 5.2 4.8 83 1.2 WNW 6 7 3 4 1013.3 1013.2 0.2
06/02:00am 7.3 4.7 4.3 81 1.3 NNW 7 7 4 4 1013.5 1013.4 0.2
06/01:30am 7.9 6.3 4.7 80 1.4 S 2 7 1 4 1013.8 1013.7 0.2
06/01:00am 8.0 6.8 4.6 79 1.5 CALM 0 0 0 0 1013.9 1013.8 0.2
06/12:30am 8.4 7.2 4.4 76 1.8 CALM 0 0 0 0 1014.4 1014.3 0.2
06/12:00am 8.8 7.5 4.2 73 2.0 CALM 0 6 0 3 1014.8 1014.7 0.2
 
Date/Time
EDT
Temp
°C
App
Temp
°C
Dew
Point
°C
Rel
Hum
%
Delta-T
°C
Wind Press
QNH
hPa
Press
MSL
hPa
Rain since
9am
mm
Dir  Spd
km/h
Gust
km/h
Spd
kts
Gust
kts
05/11:30pm 9.9 8.8 4.9 71 2.3 CALM 0 0 0 0 1014.7 1014.6 0.2
05/11:00pm 12.2 10.1 6.5 68 2.7 SSE 7 11 4 6 1014.5 1014.4 0.2
05/10:30pm 12.7 9.8 6.7 67 2.9 SSE 11 15 6 8 1014.5 1014.4 0.2
05/10:00pm 12.9 10.0 6.7 66 3.0 S 11 19 6 10 1014.2 1014.1 0.2
05/09:30pm 13.0 10.0 6.1 63 3.3 S 11 15 6 8 1014.4 1014.3 0.2
05/09:00pm 13.4 10.5 6.5 63 3.3 S 11 15 6 8 1014.9 1014.8 0.2
05/08:30pm 13.6 10.7 6.5 62 3.4 S 11 15 6 8 1015.1 1015.0 0.2
05/08:00pm 14.6 11.9 7.2 61 3.6 S 11 15 6 8 1014.8 1014.7 0.2
05/07:30pm 14.2 11.3 6.6 60 3.7 S 11 17 6 9 1014.3 1014.2 0.2
05/07:00pm 15.4 11.9 7.4 59 4.0 S 15 20 8 11 1014.0 1013.9 0.2
05/06:30pm 14.7 11.2 7.0 60 3.8 S 15 22 8 12 1014.1 1014.0 0.2
05/06:00pm 15.3 12.4 6.6 56 4.2 E 11 20 6 11 1014.5 1014.4 0.2
05/05:30pm 16.0 13.5 6.7 54 4.6 NNE 9 13 5 7 1014.5 1014.4 0.2
05/05:00pm 16.7 14.4 7.6 55 4.6 NE 9 17 5 9 1014.3 1014.2 0.2

Other Formats:

Comma delimited format used in spreadsheet applications
http://www.bom.gov.au/fwo/IDV60801/IDV60801.94826.axf

JavaScript Object Notation format (JSON) in row-major order
http://www.bom.gov.au/fwo/IDV60801/IDV60801.94826.json